Seguin's Hourly Summary for Saturday, January 22, 2022
Hour Temp
(f)
RH
(%)
Solar Rad.
(MJ/m2)
Rainfall
(in)
Wind
(mph)
Battery
(volts)
1/22/2022 12:00 AM 29 63 0 0 1.61 0
1/22/2022 1:00 AM 28 68 0 0 0.78 0
1/22/2022 2:00 AM 28 66 0 0 0.84 0
1/22/2022 3:00 AM 28 67 0 0 0.65 0
1/22/2022 4:00 AM 25 76 0 0 0.1 0
1/22/2022 5:00 AM 27 73 0 0 1.53 0
1/22/2022 6:00 AM 29 61 0 0 0.76 0
1/22/2022 7:00 AM 30 59 0.02 0 2.62 0
1/22/2022 8:00 AM 34 49 0.19 0 3.34 0
1/22/2022 9:00 AM 39 43 0.36 0 4.54 0
1/22/2022 10:00 AM 43 33 0.48 0 3.25 0
1/22/2022 11:00 AM 47 24 0.57 0 4.22 0
1/22/2022 12:00 PM 49 24 0.59 0 4.89 0
1/22/2022 1:00 PM 53 21 0.55 0 4.25 0
1/22/2022 2:00 PM 54 22 0.47 0 3.09 0
1/22/2022 3:00 PM 55 23 0.34 0 4.17 0
1/22/2022 4:00 PM 53 24 0.05 0 2.31 0
1/22/2022 5:00 PM 53 26 0.01 0 1.24 0
1/22/2022 6:00 PM 52 28 0 0 2.21 0
1/22/2022 7:00 PM 51 29 0 0 1.05 0
1/22/2022 8:00 PM 50 31 0 0 1.48 0
1/22/2022 9:00 PM 49 31 0 0 1.42 0
1/22/2022 10:00 PM 49 32 0 0 1.55 0
1/22/2022 11:00 PM 48 35 0 0 0.6 0
Data Summary 41 42 3.63 0.00 2.19 0.00